Nuangola, Pennsylvania
Current Conditions -  °F | °C
As of 9:35 PM on Friday 24 Oct 2014 (Local Time) from KHZL Reporting Station
Clear Clear  
Wind Chill: 54°   Ceiling: Unl
Heat Index: 54°   Visibility: 10mi
Dew Point: 30°   Wind: 14mph
Humidity: 41%   Direction: 320°NW
Pressure: 29.92"   Gusts: NA
Location:  41.125°N, 75.9568°W
Report Text: KHZL 250135Z AUTO 32012KT 10SM CLR 12/M01 A2992 RMK AO2
Loading
Personal Weather Stations






























Interactive Weather Map
Tropical Storm Tracking
New forecast layout! Learn more

10-Day Weather Forecast

Advertisements
Track Severe Weather on mobile